sensor_id;sensor_type;location;lat;lon;timestamp;P1;durP1;ratioP1;P2;durP2;ratioP2
3000;SDS011;1510;51.072;6.678;2023-02-10T00:01:14;74.30;;;66.67;;
3000;SDS011;1510;51.072;6.678;2023-02-10T00:03:42;64.90;;;46.90;;
3000;SDS011;1510;51.072;6.678;2023-02-10T00:06:11;66.87;;;44.03;;
3000;SDS011;1510;51.072;6.678;2023-02-10T00:08:38;65.27;;;51.97;;
3000;SDS011;1510;51.072;6.678;2023-02-10T00:11:08;69.77;;;53.03;;
3000;SDS011;1510;51.072;6.678;2023-02-10T00:13:36;62.20;;;47.63;;
3000;SDS011;1510;51.072;6.678;2023-02-10T00:16:04;64.50;;;53.07;;
3000;SDS011;1510;51.072;6.678;2023-02-10T00:18:33;62.60;;;56.00;;
3000;SDS011;1510;51.072;6.678;2023-02-10T00:21:04;70.73;;;52.20;;
3000;SDS011;1510;51.072;6.678;2023-02-10T00:23:32;67.80;;;50.37;;
3000;SDS011;1510;51.072;6.678;2023-02-10T00:26:01;61.90;;;47.87;;
3000;SDS011;1510;51.072;6.678;2023-02-10T00:28:31;59.17;;;50.23;;
3000;SDS011;1510;51.072;6.678;2023-02-10T00:30:59;79.73;;;53.07;;
3000;SDS011;1510;51.072;6.678;2023-02-10T00:33:30;64.43;;;50.43;;
3000;SDS011;1510;51.072;6.678;2023-02-10T00:35:57;77.27;;;56.67;;
3000;SDS011;1510;51.072;6.678;2023-02-10T00:38:24;74.80;;;66.63;;
3000;SDS011;1510;51.072;6.678;2023-02-10T00:40:52;65.37;;;58.47;;
3000;SDS011;1510;51.072;6.678;2023-02-10T00:43:19;73.37;;;53.87;;
3000;SDS011;1510;51.072;6.678;2023-02-10T00:45:47;84.40;;;76.57;;
3000;SDS011;1510;51.072;6.678;2023-02-10T00:48:14;84.03;;;76.13;;
3000;SDS011;1510;51.072;6.678;2023-02-10T00:50:41;83.67;;;75.83;;
3000;SDS011;1510;51.072;6.678;2023-02-10T00:53:07;130.93;;;121.63;;
3000;SDS011;1510;51.072;6.678;2023-02-10T00:55:34;126.83;;;116.00;;
3000;SDS011;1510;51.072;6.678;2023-02-10T00:58:03;123.30;;;114.20;;
3000;SDS011;1510;51.072;6.678;2023-02-10T01:00:30;133.47;;;124.40;;
3000;SDS011;1510;51.072;6.678;2023-02-10T01:02:59;157.27;;;146.07;;
3000;SDS011;1510;51.072;6.678;2023-02-10T01:05:26;226.63;;;213.50;;
3000;SDS011;1510;51.072;6.678;2023-02-10T01:07:53;244.97;;;231.33;;
3000;SDS011;1510;51.072;6.678;2023-02-10T01:10:20;254.47;;;239.77;;
3000;SDS011;1510;51.072;6.678;2023-02-10T01:12:47;299.10;;;283.90;;
3000;SDS011;1510;51.072;6.678;2023-02-10T01:15:14;289.63;;;275.13;;
3000;SDS011;1510;51.072;6.678;2023-02-10T01:17:46;206.13;;;192.80;;
3000;SDS011;1510;51.072;6.678;2023-02-10T01:20:14;178.60;;;167.40;;
3000;SDS011;1510;51.072;6.678;2023-02-10T01:22:41;231.03;;;218.43;;
3000;SDS011;1510;51.072;6.678;2023-02-10T01:25:08;198.07;;;186.20;;
3000;SDS011;1510;51.072;6.678;2023-02-10T01:27:35;197.87;;;186.10;;
3000;SDS011;1510;51.072;6.678;2023-02-10T01:30:02;146.93;;;136.63;;
3000;SDS011;1510;51.072;6.678;2023-02-10T01:32:30;165.37;;;153.27;;
3000;SDS011;1510;51.072;6.678;2023-02-10T01:34:57;131.73;;;121.90;;
3000;SDS011;1510;51.072;6.678;2023-02-10T01:37:25;112.87;;;102.40;;
3000;SDS011;1510;51.072;6.678;2023-02-10T01:39:52;118.50;;;108.90;;
3000;SDS011;1510;51.072;6.678;2023-02-10T01:42:19;112.77;;;104.03;;
3000;SDS011;1510;51.072;6.678;2023-02-10T01:47:41;114.70;;;106.43;;
3000;SDS011;1510;51.072;6.678;2023-02-10T01:50:10;81.00;;;71.87;;
3000;SDS011;1510;51.072;6.678;2023-02-10T01:52:38;72.77;;;61.77;;
3000;SDS011;1510;51.072;6.678;2023-02-10T01:55:07;81.83;;;67.33;;
3000;SDS011;1510;51.072;6.678;2023-02-10T01:57:36;71.30;;;63.93;;
3000;SDS011;1510;51.072;6.678;2023-02-10T02:00:06;70.13;;;60.67;;
3000;SDS011;1510;51.072;6.678;2023-02-10T02:02:34;101.40;;;92.47;;
3000;SDS011;1510;51.072;6.678;2023-02-10T02:05:03;95.73;;;86.73;;
3000;SDS011;1510;51.072;6.678;2023-02-10T02:07:47;86.40;;;77.87;;
3000;SDS011;1510;51.072;6.678;2023-02-10T02:10:15;98.93;;;88.77;;
3000;SDS011;1510;51.072;6.678;2023-02-10T02:12:44;96.57;;;83.83;;
3000;SDS011;1510;51.072;6.678;2023-02-10T02:15:20;91.57;;;82.83;;
3000;SDS011;1510;51.072;6.678;2023-02-10T02:17:55;84.83;;;76.13;;
3000;SDS011;1510;51.072;6.678;2023-02-10T02:20:41;83.47;;;74.63;;
3000;SDS011;1510;51.072;6.678;2023-02-10T02:23:33;70.43;;;61.33;;
3000;SDS011;1510;51.072;6.678;2023-02-10T02:32:36;74.07;;;61.23;;
3000;SDS011;1510;51.072;6.678;2023-02-10T02:35:06;76.60;;;68.33;;
3000;SDS011;1510;51.072;6.678;2023-02-10T02:37:36;85.63;;;77.13;;
3000;SDS011;1510;51.072;6.678;2023-02-10T02:40:05;70.33;;;56.83;;
3000;SDS011;1510;51.072;6.678;2023-02-10T02:42:32;76.63;;;68.57;;
3000;SDS011;1510;51.072;6.678;2023-02-10T02:45:00;82.80;;;61.47;;
3000;SDS011;1510;51.072;6.678;2023-02-10T02:47:47;74.20;;;66.47;;
3000;SDS011;1510;51.072;6.678;2023-02-10T02:50:23;67.33;;;59.53;;
3000;SDS011;1510;51.072;6.678;2023-02-10T02:53:03;68.27;;;56.83;;
3000;SDS011;1510;51.072;6.678;2023-02-10T02:55:38;75.70;;;60.97;;
3000;SDS011;1510;51.072;6.678;2023-02-10T02:58:13;81.33;;;73.23;;
3000;SDS011;1510;51.072;6.678;2023-02-10T03:00:44;87.90;;;79.83;;
3000;SDS011;1510;51.072;6.678;2023-02-10T03:03:15;102.87;;;93.73;;
3000;SDS011;1510;51.072;6.678;2023-02-10T03:05:43;104.23;;;94.97;;
3000;SDS011;1510;51.072;6.678;2023-02-10T03:08:10;113.67;;;105.03;;
3000;SDS011;1510;51.072;6.678;2023-02-10T03:10:37;119.13;;;108.93;;
3000;SDS011;1510;51.072;6.678;2023-02-10T03:13:04;148.67;;;137.50;;
3000;SDS011;1510;51.072;6.678;2023-02-10T03:15:31;145.93;;;135.50;;
3000;SDS011;1510;51.072;6.678;2023-02-10T03:17:57;177.87;;;166.20;;
3000;SDS011;1510;51.072;6.678;2023-02-10T03:20:26;219.63;;;207.57;;
3000;SDS011;1510;51.072;6.678;2023-02-10T03:22:53;259.67;;;244.77;;
3000;SDS011;1510;51.072;6.678;2023-02-10T03:25:20;324.20;;;307.50;;
3000;SDS011;1510;51.072;6.678;2023-02-10T03:27:47;403.47;;;383.57;;
3000;SDS011;1510;51.072;6.678;2023-02-10T03:30:13;443.93;;;424.30;;
3000;SDS011;1510;51.072;6.678;2023-02-10T03:32:40;525.80;;;499.03;;
3000;SDS011;1510;51.072;6.678;2023-02-10T03:35:07;549.50;;;521.53;;
3000;SDS011;1510;51.072;6.678;2023-02-10T03:37:35;592.20;;;561.10;;
3000;SDS011;1510;51.072;6.678;2023-02-10T03:40:02;600.20;;;569.00;;
3000;SDS011;1510;51.072;6.678;2023-02-10T03:42:29;620.50;;;590.37;;
3000;SDS011;1510;51.072;6.678;2023-02-10T03:44:56;565.80;;;538.30;;
3000;SDS011;1510;51.072;6.678;2023-02-10T03:47:23;542.70;;;516.63;;
3000;SDS011;1510;51.072;6.678;2023-02-10T03:49:50;529.47;;;502.37;;
3000;SDS011;1510;51.072;6.678;2023-02-10T03:52:17;521.10;;;497.03;;
3000;SDS011;1510;51.072;6.678;2023-02-10T03:54:45;548.90;;;522.10;;
3000;SDS011;1510;51.072;6.678;2023-02-10T03:57:12;643.07;;;608.57;;
3000;SDS011;1510;51.072;6.678;2023-02-10T03:59:39;678.53;;;644.77;;
3000;SDS011;1510;51.072;6.678;2023-02-10T04:02:06;717.30;;;678.83;;
3000;SDS011;1510;51.072;6.678;2023-02-10T04:04:33;730.37;;;691.67;;
3000;SDS011;1510;51.072;6.678;2023-02-10T04:07:00;731.60;;;692.07;;
3000;SDS011;1510;51.072;6.678;2023-02-10T04:09:27;750.30;;;707.43;;
3000;SDS011;1510;51.072;6.678;2023-02-10T04:11:56;777.67;;;733.20;;
3000;SDS011;1510;51.072;6.678;2023-02-10T04:14:22;819.53;;;770.47;;
3000;SDS011;1510;51.072;6.678;2023-02-10T04:16:49;836.57;;;783.57;;
3000;SDS011;1510;51.072;6.678;2023-02-10T04:19:16;835.67;;;780.77;;
3000;SDS011;1510;51.072;6.678;2023-02-10T04:21:43;828.23;;;776.27;;
3000;SDS011;1510;51.072;6.678;2023-02-10T04:24:10;845.73;;;790.43;;
3000;SDS011;1510;51.072;6.678;2023-02-10T04:26:37;854.00;;;797.30;;
3000;SDS011;1510;51.072;6.678;2023-02-10T04:29:05;858.60;;;800.38;;
3000;SDS011;1510;51.072;6.678;2023-02-10T04:31:32;870.53;;;808.20;;
3000;SDS011;1510;51.072;6.678;2023-02-10T04:34:02;878.90;;;816.30;;
3000;SDS011;1510;51.072;6.678;2023-02-10T04:36:29;873.22;;;810.47;;
3000;SDS011;1510;51.072;6.678;2023-02-10T04:38:56;874.33;;;807.90;;
3000;SDS011;1510;51.072;6.678;2023-02-10T04:41:22;873.20;;;808.40;;
3000;SDS011;1510;51.072;6.678;2023-02-10T04:43:49;859.17;;;792.13;;
3000;SDS011;1510;51.072;6.678;2023-02-10T04:46:17;866.73;;;799.20;;
3000;SDS011;1510;51.072;6.678;2023-02-10T04:48:44;867.17;;;798.93;;
3000;SDS011;1510;51.072;6.678;2023-02-10T04:51:12;862.50;;;792.10;;
3000;SDS011;1510;51.072;6.678;2023-02-10T04:53:39;862.70;;;790.40;;
3000;SDS011;1510;51.072;6.678;2023-02-10T04:56:08;846.47;;;774.93;;
3000;SDS011;1510;51.072;6.678;2023-02-10T04:58:38;848.00;;;775.53;;
3000;SDS011;1510;51.072;6.678;2023-02-10T05:01:05;848.17;;;775.70;;
3000;SDS011;1510;51.072;6.678;2023-02-10T05:03:33;847.17;;;773.55;;
3000;SDS011;1510;51.072;6.678;2023-02-10T05:06:04;831.85;;;758.88;;
3000;SDS011;1510;51.072;6.678;2023-02-10T05:08:33;846.40;;;774.90;;
3000;SDS011;1510;51.072;6.678;2023-02-10T05:11:05;845.70;;;772.40;;
3000;SDS011;1510;51.072;6.678;2023-02-10T05:13:32;845.30;;;772.00;;
3000;SDS011;1510;51.072;6.678;2023-02-10T05:15:59;852.20;;;779.30;;
3000;SDS011;1510;51.072;6.678;2023-02-10T05:18:27;864.57;;;792.40;;
3000;SDS011;1510;51.072;6.678;2023-02-10T05:20:56;853.33;;;779.70;;
3000;SDS011;1510;51.072;6.678;2023-02-10T05:23:23;838.63;;;763.17;;
3000;SDS011;1510;51.072;6.678;2023-02-10T05:25:50;846.17;;;772.00;;
3000;SDS011;1510;51.072;6.678;2023-02-10T05:28:18;845.10;;;771.00;;
3000;SDS011;1510;51.072;6.678;2023-02-10T05:30:44;829.37;;;756.47;;
3000;SDS011;1510;51.072;6.678;2023-02-10T05:33:12;831.90;;;757.90;;
3000;SDS011;1510;51.072;6.678;2023-02-10T05:35:39;833.97;;;757.13;;
3000;SDS011;1510;51.072;6.678;2023-02-10T05:38:07;828.90;;;753.70;;
3000;SDS011;1510;51.072;6.678;2023-02-10T05:40:35;830.10;;;754.50;;
3000;SDS011;1510;51.072;6.678;2023-02-10T05:43:02;838.77;;;763.90;;
3000;SDS011;1510;51.072;6.678;2023-02-10T05:45:29;830.27;;;756.53;;
3000;SDS011;1510;51.072;6.678;2023-02-10T05:47:56;838.22;;;764.30;;
3000;SDS011;1510;51.072;6.678;2023-02-10T05:50:23;848.55;;;772.55;;
3000;SDS011;1510;51.072;6.678;2023-02-10T05:52:50;834.20;;;759.20;;
3000;SDS011;1510;51.072;6.678;2023-02-10T05:55:19;835.25;;;759.75;;
3000;SDS011;1510;51.072;6.678;2023-02-10T05:57:53;848.00;;;772.90;;
3000;SDS011;1510;51.072;6.678;2023-02-10T06:00:24;850.60;;;776.67;;
3000;SDS011;1510;51.072;6.678;2023-02-10T06:02:54;850.13;;;775.73;;
3000;SDS011;1510;51.072;6.678;2023-02-10T06:05:21;857.05;;;782.30;;
3000;SDS011;1510;51.072;6.678;2023-02-10T06:07:48;851.23;;;777.33;;
3000;SDS011;1510;51.072;6.678;2023-02-10T06:10:15;853.70;;;778.57;;
3000;SDS011;1510;51.072;6.678;2023-02-10T06:12:43;864.28;;;787.67;;
3000;SDS011;1510;51.072;6.678;2023-02-10T06:15:10;856.40;;;780.40;;
3000;SDS011;1510;51.072;6.678;2023-02-10T06:17:37;836.27;;;760.60;;
3000;SDS011;1510;51.072;6.678;2023-02-10T06:20:05;846.90;;;769.20;;
3000;SDS011;1510;51.072;6.678;2023-02-10T06:22:32;847.83;;;770.00;;
3000;SDS011;1510;51.072;6.678;2023-02-10T06:24:59;846.63;;;768.33;;
3000;SDS011;1510;51.072;6.678;2023-02-10T06:27:26;855.30;;;775.50;;
3000;SDS011;1510;51.072;6.678;2023-02-10T06:29:54;844.37;;;766.80;;
3000;SDS011;1510;51.072;6.678;2023-02-10T06:32:21;848.05;;;769.03;;
3000;SDS011;1510;51.072;6.678;2023-02-10T06:34:49;846.13;;;764.40;;
3000;SDS011;1510;51.072;6.678;2023-02-10T06:37:16;841.50;;;759.83;;
3000;SDS011;1510;51.072;6.678;2023-02-10T06:39:45;847.83;;;764.50;;
3000;SDS011;1510;51.072;6.678;2023-02-10T06:42:12;866.57;;;784.47;;
3000;SDS011;1510;51.072;6.678;2023-02-10T06:44:39;836.20;;;752.83;;
3000;SDS011;1510;51.072;6.678;2023-02-10T06:47:09;844.78;;;760.78;;
3000;SDS011;1510;51.072;6.678;2023-02-10T06:49:36;848.97;;;765.03;;
3000;SDS011;1510;51.072;6.678;2023-02-10T06:52:03;827.95;;;742.38;;
3000;SDS011;1510;51.072;6.678;2023-02-10T06:54:31;821.67;;;737.10;;
3000;SDS011;1510;51.072;6.678;2023-02-10T06:56:58;821.10;;;735.40;;
3000;SDS011;1510;51.072;6.678;2023-02-10T06:59:25;826.55;;;741.75;;
3000;SDS011;1510;51.072;6.678;2023-02-10T07:01:54;818.07;;;732.60;;
3000;SDS011;1510;51.072;6.678;2023-02-10T07:04:26;824.20;;;739.43;;
3000;SDS011;1510;51.072;6.678;2023-02-10T07:06:53;836.80;;;751.45;;
3000;SDS011;1510;51.072;6.678;2023-02-10T07:09:20;828.67;;;741.43;;
3000;SDS011;1510;51.072;6.678;2023-02-10T07:11:47;830.77;;;744.73;;
3000;SDS011;1510;51.072;6.678;2023-02-10T07:14:15;832.67;;;746.10;;
3000;SDS011;1510;51.072;6.678;2023-02-10T07:16:42;828.63;;;742.37;;
3000;SDS011;1510;51.072;6.678;2023-02-10T07:19:09;817.97;;;734.47;;
3000;SDS011;1510;51.072;6.678;2023-02-10T07:21:37;837.63;;;752.63;;
3000;SDS011;1510;51.072;6.678;2023-02-10T07:24:04;830.93;;;744.93;;
3000;SDS011;1510;51.072;6.678;2023-02-10T07:26:31;847.60;;;761.60;;
3000;SDS011;1510;51.072;6.678;2023-02-10T07:29:00;844.33;;;757.43;;
3000;SDS011;1510;51.072;6.678;2023-02-10T07:31:28;825.77;;;741.40;;
3000;SDS011;1510;51.072;6.678;2023-02-10T07:33:55;831.38;;;746.05;;
3000;SDS011;1510;51.072;6.678;2023-02-10T07:36:22;826.53;;;741.77;;
3000;SDS011;1510;51.072;6.678;2023-02-10T07:38:50;828.37;;;744.90;;
3000;SDS011;1510;51.072;6.678;2023-02-10T07:41:17;813.40;;;730.90;;
3000;SDS011;1510;51.072;6.678;2023-02-10T07:43:48;825.57;;;743.70;;
3000;SDS011;1510;51.072;6.678;2023-02-10T07:46:15;828.40;;;743.80;;
3000;SDS011;1510;51.072;6.678;2023-02-10T07:48:42;823.43;;;737.23;;
3000;SDS011;1510;51.072;6.678;2023-02-10T07:51:11;839.97;;;754.17;;
3000;SDS011;1510;51.072;6.678;2023-02-10T07:53:38;831.93;;;744.90;;
3000;SDS011;1510;51.072;6.678;2023-02-10T07:56:09;826.70;;;743.70;;
3000;SDS011;1510;51.072;6.678;2023-02-10T07:58:36;841.88;;;758.45;;
3000;SDS011;1510;51.072;6.678;2023-02-10T08:01:05;835.65;;;750.40;;
3000;SDS011;1510;51.072;6.678;2023-02-10T08:03:33;828.07;;;743.47;;
3000;SDS011;1510;51.072;6.678;2023-02-10T08:06:00;820.53;;;739.37;;
3000;SDS011;1510;51.072;6.678;2023-02-10T08:08:27;825.17;;;742.10;;
3000;SDS011;1510;51.072;6.678;2023-02-10T08:10:54;815.10;;;733.07;;
3000;SDS011;1510;51.072;6.678;2023-02-10T08:13:23;830.27;;;746.03;;
3000;SDS011;1510;51.072;6.678;2023-02-10T08:15:54;821.07;;;738.77;;
3000;SDS011;1510;51.072;6.678;2023-02-10T08:18:21;821.47;;;739.00;;
3000;SDS011;1510;51.072;6.678;2023-02-10T08:20:49;820.50;;;738.50;;
3000;SDS011;1510;51.072;6.678;2023-02-10T08:23:21;814.60;;;733.40;;
3000;SDS011;1510;51.072;6.678;2023-02-10T08:25:48;817.03;;;734.13;;
3000;SDS011;1510;51.072;6.678;2023-02-10T08:28:16;812.67;;;732.20;;
3000;SDS011;1510;51.072;6.678;2023-02-10T08:30:44;821.13;;;741.70;;
3000;SDS011;1510;51.072;6.678;2023-02-10T08:33:11;811.33;;;732.00;;
3000;SDS011;1510;51.072;6.678;2023-02-10T08:35:38;813.00;;;736.80;;
3000;SDS011;1510;51.072;6.678;2023-02-10T08:38:06;802.57;;;727.00;;
3000;SDS011;1510;51.072;6.678;2023-02-10T08:40:34;816.07;;;741.37;;
3000;SDS011;1510;51.072;6.678;2023-02-10T08:43:01;799.57;;;727.00;;
3000;SDS011;1510;51.072;6.678;2023-02-10T08:45:28;785.40;;;714.13;;
3000;SDS011;1510;51.072;6.678;2023-02-10T08:47:56;788.40;;;719.23;;
3000;SDS011;1510;51.072;6.678;2023-02-10T08:50:24;778.77;;;712.37;;
3000;SDS011;1510;51.072;6.678;2023-02-10T08:52:51;775.17;;;712.33;;
3000;SDS011;1510;51.072;6.678;2023-02-10T08:55:17;773.83;;;712.57;;
3000;SDS011;1510;51.072;6.678;2023-02-10T08:57:44;759.97;;;701.27;;
3000;SDS011;1510;51.072;6.678;2023-02-10T09:00:11;750.40;;;694.87;;
3000;SDS011;1510;51.072;6.678;2023-02-10T09:02:38;733.00;;;682.20;;
3000;SDS011;1510;51.072;6.678;2023-02-10T09:05:07;664.27;;;621.03;;
3000;SDS011;1510;51.072;6.678;2023-02-10T09:07:33;588.40;;;551.77;;
3000;SDS011;1510;51.072;6.678;2023-02-10T09:10:00;485.20;;;457.67;;
3000;SDS011;1510;51.072;6.678;2023-02-10T09:12:30;470.17;;;442.63;;
3000;SDS011;1510;51.072;6.678;2023-02-10T09:15:07;377.80;;;358.10;;
3000;SDS011;1510;51.072;6.678;2023-02-10T09:17:46;199.70;;;186.93;;
3000;SDS011;1510;51.072;6.678;2023-02-10T09:20:14;73.43;;;65.40;;
3000;SDS011;1510;51.072;6.678;2023-02-10T09:22:41;55.10;;;34.60;;
3000;SDS011;1510;51.072;6.678;2023-02-10T09:25:09;59.90;;;32.30;;
3000;SDS011;1510;51.072;6.678;2023-02-10T09:27:36;53.00;;;28.07;;
3000;SDS011;1510;51.072;6.678;2023-02-10T09:30:03;57.70;;;29.37;;
3000;SDS011;1510;51.072;6.678;2023-02-10T09:32:30;57.53;;;31.90;;
3000;SDS011;1510;51.072;6.678;2023-02-10T09:34:57;67.37;;;28.63;;
3000;SDS011;1510;51.072;6.678;2023-02-10T09:37:25;53.53;;;25.63;;
3000;SDS011;1510;51.072;6.678;2023-02-10T09:39:51;54.47;;;27.20;;
3000;SDS011;1510;51.072;6.678;2023-02-10T09:42:20;55.53;;;27.50;;
3000;SDS011;1510;51.072;6.678;2023-02-10T09:44:55;61.53;;;28.30;;
3000;SDS011;1510;51.072;6.678;2023-02-10T09:47:30;57.80;;;30.20;;
3000;SDS011;1510;51.072;6.678;2023-02-10T09:53:12;60.13;;;27.60;;
3000;SDS011;1510;51.072;6.678;2023-02-10T09:55:45;51.73;;;24.47;;
3000;SDS011;1510;51.072;6.678;2023-02-10T09:58:17;57.77;;;27.40;;
3000;SDS011;1510;51.072;6.678;2023-02-10T10:00:50;51.70;;;26.23;;
3000;SDS011;1510;51.072;6.678;2023-02-10T10:03:23;55.63;;;26.70;;
3000;SDS011;1510;51.072;6.678;2023-02-10T10:06:00;47.23;;;25.93;;
3000;SDS011;1510;51.072;6.678;2023-02-10T10:08:38;59.10;;;26.17;;
3000;SDS011;1510;51.072;6.678;2023-02-10T10:11:19;53.97;;;27.93;;
3000;SDS011;1510;51.072;6.678;2023-02-10T10:13:49;53.87;;;25.90;;
3000;SDS011;1510;51.072;6.678;2023-02-10T10:16:19;55.60;;;23.70;;
3000;SDS011;1510;51.072;6.678;2023-02-10T10:19:02;52.50;;;26.27;;
3000;SDS011;1510;51.072;6.678;2023-02-10T10:21:40;51.93;;;25.97;;
3000;SDS011;1510;51.072;6.678;2023-02-10T10:24:19;53.63;;;27.13;;
3000;SDS011;1510;51.072;6.678;2023-02-10T10:26:59;52.30;;;27.23;;
3000;SDS011;1510;51.072;6.678;2023-02-10T10:29:58;47.47;;;24.20;;
3000;SDS011;1510;51.072;6.678;2023-02-10T10:32:35;58.67;;;26.00;;
3000;SDS011;1510;51.072;6.678;2023-02-10T10:35:14;59.37;;;25.27;;
3000;SDS011;1510;51.072;6.678;2023-02-10T10:37:43;49.43;;;25.07;;
3000;SDS011;1510;51.072;6.678;2023-02-10T10:40:15;50.10;;;27.03;;
3000;SDS011;1510;51.072;6.678;2023-02-10T10:42:46;53.03;;;24.80;;
3000;SDS011;1510;51.072;6.678;2023-02-10T10:45:19;47.80;;;24.20;;
3000;SDS011;1510;51.072;6.678;2023-02-10T10:48:15;45.27;;;25.70;;
3000;SDS011;1510;51.072;6.678;2023-02-10T10:50:55;49.57;;;26.33;;
3000;SDS011;1510;51.072;6.678;2023-02-10T10:53:35;47.30;;;24.30;;
3000;SDS011;1510;51.072;6.678;2023-02-10T10:56:10;51.67;;;27.73;;
3000;SDS011;1510;51.072;6.678;2023-02-10T10:58:45;47.33;;;26.60;;
3000;SDS011;1510;51.072;6.678;2023-02-10T11:01:13;49.70;;;24.70;;
3000;SDS011;1510;51.072;6.678;2023-02-10T11:03:42;51.90;;;27.73;;
3000;SDS011;1510;51.072;6.678;2023-02-10T11:06:10;45.83;;;24.50;;
3000;SDS011;1510;51.072;6.678;2023-02-10T11:08:40;46.23;;;27.67;;
3000;SDS011;1510;51.072;6.678;2023-02-10T11:11:14;43.97;;;23.87;;
3000;SDS011;1510;51.072;6.678;2023-02-10T11:13:48;44.50;;;25.83;;
3000;SDS011;1510;51.072;6.678;2023-02-10T11:16:17;46.43;;;26.00;;
3000;SDS011;1510;51.072;6.678;2023-02-10T11:18:51;50.37;;;25.40;;
3000;SDS011;1510;51.072;6.678;2023-02-10T11:21:31;39.70;;;22.97;;
3000;SDS011;1510;51.072;6.678;2023-02-10T11:31:19;49.30;;;28.30;;
3000;SDS011;1510;51.072;6.678;2023-02-10T11:34:17;46.77;;;24.80;;
3000;SDS011;1510;51.072;6.678;2023-02-10T11:37:11;47.10;;;26.87;;
3000;SDS011;1510;51.072;6.678;2023-02-10T11:39:50;43.37;;;24.77;;
3000;SDS011;1510;51.072;6.678;2023-02-10T11:42:27;42.83;;;25.07;;
3000;SDS011;1510;51.072;6.678;2023-02-10T11:45:02;41.07;;;23.60;;
3000;SDS011;1510;51.072;6.678;2023-02-10T11:48:10;49.43;;;25.23;;
3000;SDS011;1510;51.072;6.678;2023-02-10T11:50:47;46.03;;;25.30;;
3000;SDS011;1510;51.072;6.678;2023-02-10T11:53:33;50.00;;;24.90;;
3000;SDS011;1510;51.072;6.678;2023-02-10T11:56:05;47.40;;;26.27;;
3000;SDS011;1510;51.072;6.678;2023-02-10T11:59:09;46.97;;;27.33;;
3000;SDS011;1510;51.072;6.678;2023-02-10T12:01:56;44.63;;;25.30;;
3000;SDS011;1510;51.072;6.678;2023-02-10T12:04:44;41.90;;;22.97;;
3000;SDS011;1510;51.072;6.678;2023-02-10T12:07:44;46.20;;;23.93;;
3000;SDS011;1510;51.072;6.678;2023-02-10T12:10:33;38.97;;;22.80;;
3000;SDS011;1510;51.072;6.678;2023-02-10T12:13:10;41.80;;;24.53;;
3000;SDS011;1510;51.072;6.678;2023-02-10T12:15:58;40.17;;;23.33;;
3000;SDS011;1510;51.072;6.678;2023-02-10T12:18:44;44.43;;;25.57;;
3000;SDS011;1510;51.072;6.678;2023-02-10T12:24:43;44.63;;;23.17;;
3000;SDS011;1510;51.072;6.678;2023-02-10T12:27:33;46.40;;;25.63;;
3000;SDS011;1510;51.072;6.678;2023-02-10T12:30:18;40.67;;;24.53;;
3000;SDS011;1510;51.072;6.678;2023-02-10T12:33:11;49.73;;;25.47;;
3000;SDS011;1510;51.072;6.678;2023-02-10T12:35:59;40.67;;;23.10;;
3000;SDS011;1510;51.072;6.678;2023-02-10T12:38:42;49.13;;;24.53;;
3000;SDS011;1510;51.072;6.678;2023-02-10T12:44:15;40.07;;;23.43;;
3000;SDS011;1510;51.072;6.678;2023-02-10T12:46:56;40.60;;;22.93;;
3000;SDS011;1510;51.072;6.678;2023-02-10T12:49:40;46.53;;;23.67;;
3000;SDS011;1510;51.072;6.678;2023-02-10T12:52:19;39.40;;;23.47;;
3000;SDS011;1510;51.072;6.678;2023-02-10T12:54:53;43.27;;;23.17;;
3000;SDS011;1510;51.072;6.678;2023-02-10T12:57:32;40.17;;;22.63;;
3000;SDS011;1510;51.072;6.678;2023-02-10T13:00:12;42.73;;;22.43;;
3000;SDS011;1510;51.072;6.678;2023-02-10T13:02:44;36.37;;;21.40;;
3000;SDS011;1510;51.072;6.678;2023-02-10T13:05:18;42.83;;;19.40;;
3000;SDS011;1510;51.072;6.678;2023-02-10T13:07:53;30.93;;;18.27;;
3000;SDS011;1510;51.072;6.678;2023-02-10T13:10:26;29.37;;;17.20;;
3000;SDS011;1510;51.072;6.678;2023-02-10T13:13:03;26.33;;;14.37;;
3000;SDS011;1510;51.072;6.678;2023-02-10T13:15:35;26.80;;;14.70;;
3000;SDS011;1510;51.072;6.678;2023-02-10T13:18:15;28.00;;;16.03;;
3000;SDS011;1510;51.072;6.678;2023-02-10T13:20:53;28.70;;;14.27;;
3000;SDS011;1510;51.072;6.678;2023-02-10T13:23:29;26.23;;;13.77;;
3000;SDS011;1510;51.072;6.678;2023-02-10T13:26:16;28.40;;;14.23;;
3000;SDS011;1510;51.072;6.678;2023-02-10T13:28:54;29.57;;;16.77;;
3000;SDS011;1510;51.072;6.678;2023-02-10T13:34:36;33.00;;;17.37;;
3000;SDS011;1510;51.072;6.678;2023-02-10T13:37:12;24.03;;;14.37;;
3000;SDS011;1510;51.072;6.678;2023-02-10T13:40:02;28.63;;;17.10;;
3000;SDS011;1510;51.072;6.678;2023-02-10T13:42:39;27.20;;;15.17;;
3000;SDS011;1510;51.072;6.678;2023-02-10T13:45:19;28.10;;;14.47;;
3000;SDS011;1510;51.072;6.678;2023-02-10T13:47:51;34.90;;;17.70;;
3000;SDS011;1510;51.072;6.678;2023-02-10T13:50:24;30.27;;;15.97;;
3000;SDS011;1510;51.072;6.678;2023-02-10T13:52:56;31.70;;;15.93;;
3000;SDS011;1510;51.072;6.678;2023-02-10T13:58:26;25.33;;;16.03;;
3000;SDS011;1510;51.072;6.678;2023-02-10T14:04:00;44.03;;;15.07;;
3000;SDS011;1510;51.072;6.678;2023-02-10T14:06:36;34.07;;;17.03;;
3000;SDS011;1510;51.072;6.678;2023-02-10T14:09:17;28.70;;;16.90;;
3000;SDS011;1510;51.072;6.678;2023-02-10T14:12:03;31.07;;;15.03;;
3000;SDS011;1510;51.072;6.678;2023-02-10T14:14:52;24.67;;;15.80;;
3000;SDS011;1510;51.072;6.678;2023-02-10T14:17:24;33.00;;;15.10;;
3000;SDS011;1510;51.072;6.678;2023-02-10T14:20:10;36.60;;;15.30;;
3000;SDS011;1510;51.072;6.678;2023-02-10T14:22:48;26.37;;;15.40;;
3000;SDS011;1510;51.072;6.678;2023-02-10T14:25:19;29.30;;;16.07;;
3000;SDS011;1510;51.072;6.678;2023-02-10T14:27:55;30.23;;;16.20;;
3000;SDS011;1510;51.072;6.678;2023-02-10T14:30:26;31.00;;;16.03;;
3000;SDS011;1510;51.072;6.678;2023-02-10T14:33:04;29.20;;;16.27;;
3000;SDS011;1510;51.072;6.678;2023-02-10T14:35:32;32.03;;;16.03;;
3000;SDS011;1510;51.072;6.678;2023-02-10T14:38:03;34.20;;;18.13;;
3000;SDS011;1510;51.072;6.678;2023-02-10T14:40:30;32.17;;;18.17;;
3000;SDS011;1510;51.072;6.678;2023-02-10T14:42:59;34.87;;;17.50;;
3000;SDS011;1510;51.072;6.678;2023-02-10T14:45:28;31.37;;;17.93;;
3000;SDS011;1510;51.072;6.678;2023-02-10T14:48:00;32.33;;;17.53;;
3000;SDS011;1510;51.072;6.678;2023-02-10T14:50:29;26.37;;;16.50;;
3000;SDS011;1510;51.072;6.678;2023-02-10T14:53:01;28.03;;;15.73;;
3000;SDS011;1510;51.072;6.678;2023-02-10T14:55:30;30.17;;;16.10;;
3000;SDS011;1510;51.072;6.678;2023-02-10T14:58:03;38.43;;;16.43;;
3000;SDS011;1510;51.072;6.678;2023-02-10T15:00:33;27.17;;;17.00;;
3000;SDS011;1510;51.072;6.678;2023-02-10T15:03:02;36.27;;;15.03;;
3000;SDS011;1510;51.072;6.678;2023-02-10T15:05:43;26.90;;;16.17;;
3000;SDS011;1510;51.072;6.678;2023-02-10T15:08:14;28.37;;;16.13;;
3000;SDS011;1510;51.072;6.678;2023-02-10T15:10:46;31.30;;;16.53;;
3000;SDS011;1510;51.072;6.678;2023-02-10T15:13:22;29.40;;;15.00;;
3000;SDS011;1510;51.072;6.678;2023-02-10T15:15:53;26.90;;;15.63;;
3000;SDS011;1510;51.072;6.678;2023-02-10T15:18:25;29.67;;;15.13;;
3000;SDS011;1510;51.072;6.678;2023-02-10T15:20:57;36.27;;;17.23;;
3000;SDS011;1510;51.072;6.678;2023-02-10T15:23:31;24.87;;;14.77;;
3000;SDS011;1510;51.072;6.678;2023-02-10T15:26:00;22.67;;;14.07;;
3000;SDS011;1510;51.072;6.678;2023-02-10T15:28:34;21.00;;;13.97;;
3000;SDS011;1510;51.072;6.678;2023-02-10T15:31:06;25.17;;;14.73;;
3000;SDS011;1510;51.072;6.678;2023-02-10T15:33:50;21.93;;;14.30;;
3000;SDS011;1510;51.072;6.678;2023-02-10T15:36:20;23.30;;;14.17;;